sensor_id;sensor_type;location;lat;lon;timestamp;P1;durP1;ratioP1;P2;durP2;ratioP2
28934;SDS011;16044;52.726;-2.108;2023-04-01T00:00:52;16.50;;;14.05;;
28934;SDS011;16044;52.726;-2.108;2023-04-01T00:03:20;17.10;;;13.75;;
28934;SDS011;16044;52.726;-2.108;2023-04-01T00:05:49;16.90;;;13.20;;
28934;SDS011;16044;52.726;-2.108;2023-04-01T00:08:16;17.65;;;13.13;;
28934;SDS011;16044;52.726;-2.108;2023-04-01T00:10:44;16.88;;;13.15;;
28934;SDS011;16044;52.726;-2.108;2023-04-01T00:13:11;18.23;;;13.98;;
28934;SDS011;16044;52.726;-2.108;2023-04-01T00:15:39;15.60;;;12.88;;
28934;SDS011;16044;52.726;-2.108;2023-04-01T00:18:07;16.75;;;13.40;;
28934;SDS011;16044;52.726;-2.108;2023-04-01T00:20:35;18.23;;;13.32;;
28934;SDS011;16044;52.726;-2.108;2023-04-01T00:23:02;17.15;;;13.75;;
28934;SDS011;16044;52.726;-2.108;2023-04-01T00:25:29;15.20;;;12.57;;
28934;SDS011;16044;52.726;-2.108;2023-04-01T00:27:57;17.00;;;13.10;;
28934;SDS011;16044;52.726;-2.108;2023-04-01T00:30:24;15.30;;;12.50;;
28934;SDS011;16044;52.726;-2.108;2023-04-01T00:32:51;16.60;;;13.32;;
28934;SDS011;16044;52.726;-2.108;2023-04-01T00:35:19;14.15;;;12.00;;
28934;SDS011;16044;52.726;-2.108;2023-04-01T00:37:47;17.17;;;13.93;;
28934;SDS011;16044;52.726;-2.108;2023-04-01T00:40:22;16.30;;;12.70;;
28934;SDS011;16044;52.726;-2.108;2023-04-01T00:43:14;15.20;;;12.73;;
28934;SDS011;16044;52.726;-2.108;2023-04-01T00:45:46;16.00;;;13.38;;
28934;SDS011;16044;52.726;-2.108;2023-04-01T00:48:16;16.05;;;13.20;;
28934;SDS011;16044;52.726;-2.108;2023-04-01T00:51:09;17.65;;;12.90;;
28934;SDS011;16044;52.726;-2.108;2023-04-01T00:53:50;16.02;;;12.93;;
28934;SDS011;16044;52.726;-2.108;2023-04-01T00:56:21;17.45;;;12.45;;
28934;SDS011;16044;52.726;-2.108;2023-04-01T00:58:57;16.30;;;13.15;;
28934;SDS011;16044;52.726;-2.108;2023-04-01T01:01:29;15.50;;;12.20;;
28934;SDS011;16044;52.726;-2.108;2023-04-01T01:03:57;16.52;;;13.70;;
28934;SDS011;16044;52.726;-2.108;2023-04-01T01:12:34;18.53;;;13.27;;
28934;SDS011;16044;52.726;-2.108;2023-04-01T01:23:57;18.08;;;12.15;;
28934;SDS011;16044;52.726;-2.108;2023-04-01T01:35:48;21.58;;;12.07;;
28934;SDS011;16044;52.726;-2.108;2023-04-01T01:38:20;14.27;;;10.73;;
28934;SDS011;16044;52.726;-2.108;2023-04-01T01:40:52;15.63;;;10.73;;
28934;SDS011;16044;52.726;-2.108;2023-04-01T01:43:25;13.85;;;10.95;;
28934;SDS011;16044;52.726;-2.108;2023-04-01T01:45:58;12.00;;;9.60;;
28934;SDS011;16044;52.726;-2.108;2023-04-01T01:48:33;14.00;;;10.60;;
28934;SDS011;16044;52.726;-2.108;2023-04-01T01:51:02;14.25;;;10.40;;
28934;SDS011;16044;52.726;-2.108;2023-04-01T01:53:32;12.45;;;9.38;;
28934;SDS011;16044;52.726;-2.108;2023-04-01T01:56:00;13.00;;;9.38;;
28934;SDS011;16044;52.726;-2.108;2023-04-01T01:58:29;13.85;;;9.70;;
28934;SDS011;16044;52.726;-2.108;2023-04-01T02:01:07;15.45;;;9.40;;
28934;SDS011;16044;52.726;-2.108;2023-04-01T02:03:44;12.63;;;9.25;;
28934;SDS011;16044;52.726;-2.108;2023-04-01T02:06:13;15.40;;;9.98;;
28934;SDS011;16044;52.726;-2.108;2023-04-01T02:14:15;12.63;;;9.30;;
28934;SDS011;16044;52.726;-2.108;2023-04-01T02:19:24;17.98;;;11.27;;
28934;SDS011;16044;52.726;-2.108;2023-04-01T02:22:00;14.32;;;10.70;;
28934;SDS011;16044;52.726;-2.108;2023-04-01T02:24:30;16.83;;;10.98;;
28934;SDS011;16044;52.726;-2.108;2023-04-01T02:27:01;17.67;;;10.68;;
28934;SDS011;16044;52.726;-2.108;2023-04-01T02:29:29;16.17;;;10.68;;
28934;SDS011;16044;52.726;-2.108;2023-04-01T02:31:57;14.23;;;10.18;;
28934;SDS011;16044;52.726;-2.108;2023-04-01T02:34:25;16.48;;;10.60;;
28934;SDS011;16044;52.726;-2.108;2023-04-01T02:36:53;17.13;;;10.55;;
28934;SDS011;16044;52.726;-2.108;2023-04-01T02:39:22;16.27;;;10.90;;
28934;SDS011;16044;52.726;-2.108;2023-04-01T02:41:49;15.77;;;10.27;;
28934;SDS011;16044;52.726;-2.108;2023-04-01T02:44:16;18.20;;;10.52;;
28934;SDS011;16044;52.726;-2.108;2023-04-01T02:46:43;15.90;;;9.75;;
28934;SDS011;16044;52.726;-2.108;2023-04-01T02:49:10;16.52;;;9.40;;
28934;SDS011;16044;52.726;-2.108;2023-04-01T02:51:37;15.68;;;9.70;;
28934;SDS011;16044;52.726;-2.108;2023-04-01T02:54:04;15.30;;;9.65;;
28934;SDS011;16044;52.726;-2.108;2023-04-01T02:56:31;18.75;;;9.77;;
28934;SDS011;16044;52.726;-2.108;2023-04-01T02:58:58;17.08;;;8.77;;
28934;SDS011;16044;52.726;-2.108;2023-04-01T03:01:25;17.08;;;9.38;;
28934;SDS011;16044;52.726;-2.108;2023-04-01T03:03:52;14.85;;;8.57;;
28934;SDS011;16044;52.726;-2.108;2023-04-01T03:06:19;14.57;;;8.60;;
28934;SDS011;16044;52.726;-2.108;2023-04-01T03:08:46;12.95;;;8.27;;
28934;SDS011;16044;52.726;-2.108;2023-04-01T03:11:13;10.02;;;6.97;;
28934;SDS011;16044;52.726;-2.108;2023-04-01T03:13:41;10.60;;;6.10;;
28934;SDS011;16044;52.726;-2.108;2023-04-01T03:16:08;10.18;;;5.35;;
28934;SDS011;16044;52.726;-2.108;2023-04-01T03:18:35;10.00;;;5.13;;
28934;SDS011;16044;52.726;-2.108;2023-04-01T03:21:18;8.50;;;4.55;;
28934;SDS011;16044;52.726;-2.108;2023-04-01T03:23:50;9.20;;;4.40;;
28934;SDS011;16044;52.726;-2.108;2023-04-01T03:26:17;10.25;;;4.63;;
28934;SDS011;16044;52.726;-2.108;2023-04-01T03:28:45;12.88;;;5.13;;
28934;SDS011;16044;52.726;-2.108;2023-04-01T03:31:12;8.98;;;4.80;;
28934;SDS011;16044;52.726;-2.108;2023-04-01T03:33:39;10.52;;;4.95;;
28934;SDS011;16044;52.726;-2.108;2023-04-01T03:36:07;9.38;;;5.10;;
28934;SDS011;16044;52.726;-2.108;2023-04-01T03:38:35;9.80;;;5.25;;
28934;SDS011;16044;52.726;-2.108;2023-04-01T03:41:02;9.23;;;5.50;;
28934;SDS011;16044;52.726;-2.108;2023-04-01T03:43:29;10.98;;;5.82;;
28934;SDS011;16044;52.726;-2.108;2023-04-01T03:45:56;8.95;;;5.47;;
28934;SDS011;16044;52.726;-2.108;2023-04-01T03:48:24;11.57;;;5.82;;
28934;SDS011;16044;52.726;-2.108;2023-04-01T03:50:52;11.45;;;6.13;;
28934;SDS011;16044;52.726;-2.108;2023-04-01T03:53:19;11.80;;;7.40;;
28934;SDS011;16044;52.726;-2.108;2023-04-01T03:55:46;10.40;;;6.55;;
28934;SDS011;16044;52.726;-2.108;2023-04-01T03:58:13;12.55;;;7.10;;
28934;SDS011;16044;52.726;-2.108;2023-04-01T04:00:41;11.15;;;6.60;;
28934;SDS011;16044;52.726;-2.108;2023-04-01T04:03:08;13.98;;;6.47;;
28934;SDS011;16044;52.726;-2.108;2023-04-01T04:05:35;12.23;;;7.28;;
28934;SDS011;16044;52.726;-2.108;2023-04-01T04:08:02;12.38;;;7.40;;
28934;SDS011;16044;52.726;-2.108;2023-04-01T04:10:29;13.05;;;7.97;;
28934;SDS011;16044;52.726;-2.108;2023-04-01T04:12:56;13.57;;;7.38;;
28934;SDS011;16044;52.726;-2.108;2023-04-01T04:15:23;11.80;;;6.65;;
28934;SDS011;16044;52.726;-2.108;2023-04-01T04:17:50;12.48;;;7.50;;
28934;SDS011;16044;52.726;-2.108;2023-04-01T04:20:17;13.27;;;6.88;;
28934;SDS011;16044;52.726;-2.108;2023-04-01T04:22:44;13.18;;;6.65;;
28934;SDS011;16044;52.726;-2.108;2023-04-01T04:25:12;11.23;;;6.40;;
28934;SDS011;16044;52.726;-2.108;2023-04-01T04:27:39;11.80;;;6.53;;
28934;SDS011;16044;52.726;-2.108;2023-04-01T04:30:06;13.68;;;6.53;;
28934;SDS011;16044;52.726;-2.108;2023-04-01T04:32:35;11.65;;;6.60;;
28934;SDS011;16044;52.726;-2.108;2023-04-01T04:35:02;12.77;;;5.97;;
28934;SDS011;16044;52.726;-2.108;2023-04-01T04:37:29;11.60;;;6.38;;
28934;SDS011;16044;52.726;-2.108;2023-04-01T04:39:56;9.90;;;5.90;;
28934;SDS011;16044;52.726;-2.108;2023-04-01T04:42:23;8.23;;;5.30;;
28934;SDS011;16044;52.726;-2.108;2023-04-01T04:44:50;11.52;;;5.10;;
28934;SDS011;16044;52.726;-2.108;2023-04-01T04:47:17;7.43;;;4.28;;
28934;SDS011;16044;52.726;-2.108;2023-04-01T04:49:44;8.10;;;4.82;;
28934;SDS011;16044;52.726;-2.108;2023-04-01T04:52:11;8.00;;;4.40;;
28934;SDS011;16044;52.726;-2.108;2023-04-01T04:54:39;7.55;;;4.35;;
28934;SDS011;16044;52.726;-2.108;2023-04-01T04:57:06;6.80;;;3.95;;
28934;SDS011;16044;52.726;-2.108;2023-04-01T04:59:33;9.00;;;4.53;;
28934;SDS011;16044;52.726;-2.108;2023-04-01T05:02:00;6.70;;;3.67;;
28934;SDS011;16044;52.726;-2.108;2023-04-01T05:04:27;6.43;;;3.60;;
28934;SDS011;16044;52.726;-2.108;2023-04-01T05:06:55;7.50;;;3.70;;
28934;SDS011;16044;52.726;-2.108;2023-04-01T05:09:22;7.43;;;3.80;;
28934;SDS011;16044;52.726;-2.108;2023-04-01T05:11:49;7.15;;;3.67;;
28934;SDS011;16044;52.726;-2.108;2023-04-01T05:14:16;6.20;;;3.92;;
28934;SDS011;16044;52.726;-2.108;2023-04-01T05:16:43;6.00;;;3.88;;
28934;SDS011;16044;52.726;-2.108;2023-04-01T05:19:10;6.10;;;3.72;;
28934;SDS011;16044;52.726;-2.108;2023-04-01T05:21:37;6.25;;;3.95;;
28934;SDS011;16044;52.726;-2.108;2023-04-01T05:24:06;4.68;;;3.10;;
28934;SDS011;16044;52.726;-2.108;2023-04-01T05:26:35;8.05;;;3.60;;
28934;SDS011;16044;52.726;-2.108;2023-04-01T05:29:06;5.68;;;3.55;;
28934;SDS011;16044;52.726;-2.108;2023-04-01T05:31:33;5.15;;;3.47;;
28934;SDS011;16044;52.726;-2.108;2023-04-01T05:33:59;6.45;;;3.33;;
28934;SDS011;16044;52.726;-2.108;2023-04-01T05:36:26;6.55;;;3.42;;
28934;SDS011;16044;52.726;-2.108;2023-04-01T05:38:56;6.50;;;3.25;;
28934;SDS011;16044;52.726;-2.108;2023-04-01T05:41:23;7.63;;;3.90;;
28934;SDS011;16044;52.726;-2.108;2023-04-01T05:43:50;9.10;;;4.20;;
28934;SDS011;16044;52.726;-2.108;2023-04-01T05:46:17;8.00;;;4.30;;
28934;SDS011;16044;52.726;-2.108;2023-04-01T05:48:44;5.18;;;3.10;;
28934;SDS011;16044;52.726;-2.108;2023-04-01T05:51:15;7.55;;;3.45;;
28934;SDS011;16044;52.726;-2.108;2023-04-01T05:53:42;6.93;;;3.60;;
28934;SDS011;16044;52.726;-2.108;2023-04-01T05:56:09;5.97;;;3.00;;
28934;SDS011;16044;52.726;-2.108;2023-04-01T05:58:37;4.85;;;2.90;;
28934;SDS011;16044;52.726;-2.108;2023-04-01T06:01:09;5.38;;;2.72;;
28934;SDS011;16044;52.726;-2.108;2023-04-01T06:03:41;7.13;;;3.22;;
28934;SDS011;16044;52.726;-2.108;2023-04-01T06:06:30;8.55;;;3.30;;
28934;SDS011;16044;52.726;-2.108;2023-04-01T06:09:04;7.85;;;2.97;;
28934;SDS011;16044;52.726;-2.108;2023-04-01T06:15:02;5.90;;;2.92;;
28934;SDS011;16044;52.726;-2.108;2023-04-01T06:50:37;6.57;;;2.85;;
28934;SDS011;16044;52.726;-2.108;2023-04-01T06:53:28;8.85;;;3.60;;
28934;SDS011;16044;52.726;-2.108;2023-04-01T06:56:23;6.75;;;2.85;;
28934;SDS011;16044;52.726;-2.108;2023-04-01T07:01:26;6.63;;;3.03;;
28934;SDS011;16044;52.726;-2.108;2023-04-01T07:04:17;8.85;;;3.40;;
28934;SDS011;16044;52.726;-2.108;2023-04-01T07:06:50;8.13;;;3.55;;
28934;SDS011;16044;52.726;-2.108;2023-04-01T07:09:34;9.38;;;3.53;;
28934;SDS011;16044;52.726;-2.108;2023-04-01T07:12:09;7.38;;;3.70;;
28934;SDS011;16044;52.726;-2.108;2023-04-01T07:14:48;6.22;;;3.63;;
28934;SDS011;16044;52.726;-2.108;2023-04-01T07:17:19;6.40;;;3.95;;
28934;SDS011;16044;52.726;-2.108;2023-04-01T07:19:51;7.15;;;4.07;;
28934;SDS011;16044;52.726;-2.108;2023-04-01T07:22:34;8.82;;;3.85;;
28934;SDS011;16044;52.726;-2.108;2023-04-01T07:25:13;5.75;;;3.15;;
28934;SDS011;16044;52.726;-2.108;2023-04-01T07:27:44;7.40;;;3.50;;
28934;SDS011;16044;52.726;-2.108;2023-04-01T07:30:13;6.90;;;3.20;;
28934;SDS011;16044;52.726;-2.108;2023-04-01T07:33:05;5.47;;;2.75;;
28934;SDS011;16044;52.726;-2.108;2023-04-01T07:35:42;7.78;;;3.42;;
28934;SDS011;16044;52.726;-2.108;2023-04-01T07:41:22;5.85;;;2.45;;
28934;SDS011;16044;52.726;-2.108;2023-04-01T07:43:56;6.32;;;2.30;;
28934;SDS011;16044;52.726;-2.108;2023-04-01T07:55:35;5.75;;;1.95;;
28934;SDS011;16044;52.726;-2.108;2023-04-01T08:01:31;3.08;;;1.80;;
28934;SDS011;16044;52.726;-2.108;2023-04-01T08:04:17;5.05;;;1.88;;
28934;SDS011;16044;52.726;-2.108;2023-04-01T08:09:50;4.88;;;1.92;;
28934;SDS011;16044;52.726;-2.108;2023-04-01T08:21:32;7.70;;;4.40;;
28934;SDS011;16044;52.726;-2.108;2023-04-01T08:24:35;8.07;;;5.20;;
28934;SDS011;16044;52.726;-2.108;2023-04-01T08:30:06;11.23;;;5.75;;
28934;SDS011;16044;52.726;-2.108;2023-04-01T08:32:45;12.68;;;7.07;;
28934;SDS011;16044;52.726;-2.108;2023-04-01T08:35:45;13.60;;;7.80;;
28934;SDS011;16044;52.726;-2.108;2023-04-01T08:38:23;11.23;;;6.95;;
28934;SDS011;16044;52.726;-2.108;2023-04-01T08:43:42;11.40;;;6.20;;
28934;SDS011;16044;52.726;-2.108;2023-04-01T09:04:06;8.30;;;2.70;;
28934;SDS011;16044;52.726;-2.108;2023-04-01T09:12:29;7.65;;;3.08;;
28934;SDS011;16044;52.726;-2.108;2023-04-01T09:15:30;5.93;;;3.03;;
28934;SDS011;16044;52.726;-2.108;2023-04-01T09:27:34;8.82;;;3.20;;
28934;SDS011;16044;52.726;-2.108;2023-04-01T09:30:32;4.57;;;2.75;;
28934;SDS011;16044;52.726;-2.108;2023-04-01T09:36:26;5.75;;;3.03;;
28934;SDS011;16044;52.726;-2.108;2023-04-01T09:38:59;6.72;;;3.75;;
28934;SDS011;16044;52.726;-2.108;2023-04-01T09:45:04;9.38;;;5.32;;
28934;SDS011;16044;52.726;-2.108;2023-04-01T09:48:09;7.70;;;5.30;;
28934;SDS011;16044;52.726;-2.108;2023-04-01T09:51:06;9.95;;;5.53;;
28934;SDS011;16044;52.726;-2.108;2023-04-01T10:14:59;9.52;;;6.90;;
28934;SDS011;16044;52.726;-2.108;2023-04-01T10:24:10;8.93;;;5.40;;
28934;SDS011;16044;52.726;-2.108;2023-04-01T11:24:51;4.30;;;1.65;;
28934;SDS011;16044;52.726;-2.108;2023-04-01T11:42:32;2.38;;;1.10;;
28934;SDS011;16044;52.726;-2.108;2023-04-01T11:45:23;6.38;;;1.35;;
28934;SDS011;16044;52.726;-2.108;2023-04-01T12:03:41;3.38;;;1.05;;
28934;SDS011;16044;52.726;-2.108;2023-04-01T12:15:32;4.82;;;1.52;;
28934;SDS011;16044;52.726;-2.108;2023-04-01T12:41:40;2.75;;;1.10;;
28934;SDS011;16044;52.726;-2.108;2023-04-01T12:49:56;3.20;;;0.90;;
28934;SDS011;16044;52.726;-2.108;2023-04-01T12:56:14;2.25;;;0.70;;
28934;SDS011;16044;52.726;-2.108;2023-04-01T12:59:19;4.05;;;1.02;;
28934;SDS011;16044;52.726;-2.108;2023-04-01T13:02:11;2.28;;;0.75;;
28934;SDS011;16044;52.726;-2.108;2023-04-01T13:28:45;1.70;;;0.55;;
28934;SDS011;16044;52.726;-2.108;2023-04-01T13:43:36;4.53;;;1.00;;
28934;SDS011;16044;52.726;-2.108;2023-04-01T14:08:15;3.90;;;2.05;;
28934;SDS011;16044;52.726;-2.108;2023-04-01T14:11:04;2.83;;;1.30;;
28934;SDS011;16044;52.726;-2.108;2023-04-01T14:20:21;5.20;;;2.30;;
28934;SDS011;16044;52.726;-2.108;2023-04-01T14:29:08;2.65;;;0.80;;
28934;SDS011;16044;52.726;-2.108;2023-04-01T14:37:10;2.40;;;0.70;;
28934;SDS011;16044;52.726;-2.108;2023-04-01T14:49:01;2.78;;;0.60;;
28934;SDS011;16044;52.726;-2.108;2023-04-01T14:51:40;1.60;;;0.50;;
28934;SDS011;16044;52.726;-2.108;2023-04-01T14:56:42;1.92;;;0.70;;
28934;SDS011;16044;52.726;-2.108;2023-04-01T15:25:01;4.43;;;2.10;;
28934;SDS011;16044;52.726;-2.108;2023-04-01T15:45:31;3.00;;;1.20;;
28934;SDS011;16044;52.726;-2.108;2023-04-01T15:54:25;2.58;;;0.73;;
28934;SDS011;16044;52.726;-2.108;2023-04-01T15:58:17;3.95;;;1.10;;
28934;SDS011;16044;52.726;-2.108;2023-04-01T16:03:50;3.03;;;1.10;;
28934;SDS011;16044;52.726;-2.108;2023-04-01T16:06:52;4.10;;;1.90;;
28934;SDS011;16044;52.726;-2.108;2023-04-01T16:09:43;3.28;;;1.60;;
28934;SDS011;16044;52.726;-2.108;2023-04-01T16:12:46;5.75;;;1.83;;
28934;SDS011;16044;52.726;-2.108;2023-04-01T16:21:59;2.47;;;1.33;;
28934;SDS011;16044;52.726;-2.108;2023-04-01T16:25:13;2.97;;;1.27;;
28934;SDS011;16044;52.726;-2.108;2023-04-01T16:37:15;5.05;;;1.92;;
28934;SDS011;16044;52.726;-2.108;2023-04-01T16:40:16;5.00;;;2.08;;
28934;SDS011;16044;52.726;-2.108;2023-04-01T16:51:37;5.35;;;2.08;;
28934;SDS011;16044;52.726;-2.108;2023-04-01T16:59:54;3.45;;;1.40;;
28934;SDS011;16044;52.726;-2.108;2023-04-01T17:02:36;3.75;;;1.10;;
28934;SDS011;16044;52.726;-2.108;2023-04-01T17:05:12;3.10;;;1.00;;
28934;SDS011;16044;52.726;-2.108;2023-04-01T17:07:54;2.15;;;1.10;;
28934;SDS011;16044;52.726;-2.108;2023-04-01T17:14:03;2.60;;;1.30;;
28934;SDS011;16044;52.726;-2.108;2023-04-01T17:17:48;2.35;;;1.08;;
28934;SDS011;16044;52.726;-2.108;2023-04-01T17:23:12;4.40;;;1.60;;
28934;SDS011;16044;52.726;-2.108;2023-04-01T17:25:48;5.78;;;1.83;;
28934;SDS011;16044;52.726;-2.108;2023-04-01T17:29:32;6.25;;;2.38;;
28934;SDS011;16044;52.726;-2.108;2023-04-01T17:31:46;4.18;;;1.75;;
28934;SDS011;16044;52.726;-2.108;2023-04-01T17:34:35;8.98;;;4.05;;
28934;SDS011;16044;52.726;-2.108;2023-04-01T17:42:49;4.10;;;1.80;;
28934;SDS011;16044;52.726;-2.108;2023-04-01T17:45:31;3.00;;;1.30;;
28934;SDS011;16044;52.726;-2.108;2023-04-01T17:48:47;5.22;;;1.67;;
28934;SDS011;16044;52.726;-2.108;2023-04-01T17:57:52;4.55;;;1.38;;
28934;SDS011;16044;52.726;-2.108;2023-04-01T18:09:13;4.20;;;1.60;;
28934;SDS011;16044;52.726;-2.108;2023-04-01T18:14:23;3.97;;;1.35;;
28934;SDS011;16044;52.726;-2.108;2023-04-01T18:22:40;3.67;;;1.60;;
28934;SDS011;16044;52.726;-2.108;2023-04-01T18:25:16;3.75;;;1.77;;
28934;SDS011;16044;52.726;-2.108;2023-04-01T18:28:34;3.22;;;1.70;;
28934;SDS011;16044;52.726;-2.108;2023-04-01T18:30:58;6.60;;;2.80;;
28934;SDS011;16044;52.726;-2.108;2023-04-01T18:39:31;3.78;;;2.03;;
28934;SDS011;16044;52.726;-2.108;2023-04-01T18:50:57;8.10;;;4.30;;
28934;SDS011;16044;52.726;-2.108;2023-04-01T18:53:35;3.53;;;1.70;;
28934;SDS011;16044;52.726;-2.108;2023-04-01T18:56:23;4.47;;;1.63;;
28934;SDS011;16044;52.726;-2.108;2023-04-01T18:59:04;4.95;;;1.75;;
28934;SDS011;16044;52.726;-2.108;2023-04-01T19:02:01;4.15;;;1.90;;
28934;SDS011;16044;52.726;-2.108;2023-04-01T19:04:52;7.55;;;2.17;;
28934;SDS011;16044;52.726;-2.108;2023-04-01T19:07:49;4.40;;;2.10;;
28934;SDS011;16044;52.726;-2.108;2023-04-01T19:16:40;6.90;;;2.20;;
28934;SDS011;16044;52.726;-2.108;2023-04-01T19:19:34;5.85;;;2.50;;
28934;SDS011;16044;52.726;-2.108;2023-04-01T19:31:34;5.28;;;2.33;;
28934;SDS011;16044;52.726;-2.108;2023-04-01T19:42:39;12.80;;;2.58;;
28934;SDS011;16044;52.726;-2.108;2023-04-01T19:59:34;11.18;;;4.32;;
28934;SDS011;16044;52.726;-2.108;2023-04-01T20:04:43;6.72;;;2.55;;
28934;SDS011;16044;52.726;-2.108;2023-04-01T20:15:41;8.50;;;2.70;;
28934;SDS011;16044;52.726;-2.108;2023-04-01T20:23:59;6.88;;;2.83;;
28934;SDS011;16044;52.726;-2.108;2023-04-01T20:26:36;7.30;;;2.95;;
28934;SDS011;16044;52.726;-2.108;2023-04-01T20:29:27;8.65;;;2.72;;
28934;SDS011;16044;52.726;-2.108;2023-04-01T20:41:25;4.70;;;2.90;;
28934;SDS011;16044;52.726;-2.108;2023-04-01T20:44:43;7.90;;;3.38;;
28934;SDS011;16044;52.726;-2.108;2023-04-01T20:52:55;7.70;;;3.30;;
28934;SDS011;16044;52.726;-2.108;2023-04-01T21:06:34;7.88;;;3.60;;
28934;SDS011;16044;52.726;-2.108;2023-04-01T21:21:34;9.52;;;4.40;;
28934;SDS011;16044;52.726;-2.108;2023-04-01T21:31:02;12.10;;;4.50;;
28934;SDS011;16044;52.726;-2.108;2023-04-01T21:39:49;10.60;;;4.60;;
28934;SDS011;16044;52.726;-2.108;2023-04-01T21:48:44;11.02;;;4.13;;
28934;SDS011;16044;52.726;-2.108;2023-04-01T21:54:57;10.27;;;4.22;;
28934;SDS011;16044;52.726;-2.108;2023-04-01T22:07:02;10.98;;;3.58;;
28934;SDS011;16044;52.726;-2.108;2023-04-01T22:09:52;7.50;;;3.55;;
28934;SDS011;16044;52.726;-2.108;2023-04-01T22:12:50;6.43;;;3.42;;
28934;SDS011;16044;52.726;-2.108;2023-04-01T22:16:44;7.05;;;3.30;;
28934;SDS011;16044;52.726;-2.108;2023-04-01T22:18:46;7.82;;;3.30;;
28934;SDS011;16044;52.726;-2.108;2023-04-01T22:21:27;11.82;;;3.75;;
28934;SDS011;16044;52.726;-2.108;2023-04-01T22:32:58;8.93;;;3.30;;
28934;SDS011;16044;52.726;-2.108;2023-04-01T22:39:03;7.57;;;3.42;;
28934;SDS011;16044;52.726;-2.108;2023-04-01T22:44:29;9.70;;;4.00;;
28934;SDS011;16044;52.726;-2.108;2023-04-01T22:50:35;10.25;;;3.83;;
28934;SDS011;16044;52.726;-2.108;2023-04-01T22:56:09;10.05;;;4.32;;
28934;SDS011;16044;52.726;-2.108;2023-04-01T23:02:01;10.75;;;4.50;;
28934;SDS011;16044;52.726;-2.108;2023-04-01T23:04:38;9.52;;;4.18;;
28934;SDS011;16044;52.726;-2.108;2023-04-01T23:10:17;9.43;;;4.18;;
28934;SDS011;16044;52.726;-2.108;2023-04-01T23:12:52;10.55;;;4.00;;
28934;SDS011;16044;52.726;-2.108;2023-04-01T23:15:24;12.95;;;4.63;;
28934;SDS011;16044;52.726;-2.108;2023-04-01T23:20:38;12.60;;;4.45;;
28934;SDS011;16044;52.726;-2.108;2023-04-01T23:26:18;9.27;;;3.92;;
28934;SDS011;16044;52.726;-2.108;2023-04-01T23:28:57;8.02;;;3.67;;
28934;SDS011;16044;52.726;-2.108;2023-04-01T23:31:27;10.23;;;4.00;;
28934;SDS011;16044;52.726;-2.108;2023-04-01T23:36:45;9.68;;;3.78;;
28934;SDS011;16044;52.726;-2.108;2023-04-01T23:39:23;9.50;;;3.97;;
28934;SDS011;16044;52.726;-2.108;2023-04-01T23:42:20;7.15;;;3.83;;
28934;SDS011;16044;52.726;-2.108;2023-04-01T23:45:02;8.60;;;3.50;;
28934;SDS011;16044;52.726;-2.108;2023-04-01T23:47:36;8.15;;;3.83;;
28934;SDS011;16044;52.726;-2.108;2023-04-01T23:50:18;11.15;;;4.22;;
28934;SDS011;16044;52.726;-2.108;2023-04-01T23:52:54;7.53;;;3.50;;
28934;SDS011;16044;52.726;-2.108;2023-04-01T23:55:33;8.00;;;3.25;;
